Time;durP1;ratioP1;P1;durP2;ratioP2;P2;SDS_P1;SDS_P2;PMS_P1;PMS_P2;Temp;Humidity;BMP_temperature;BMP_pressure;BME280_temperature;BME280_humidity;BME280_pressure;Samples;Min_cycle;Max_cycle;Signal;HPM_P1;HPM_P2
2021/07/20 00:01:58;;;;;;;1.85;1.33;;;24.60;99.90;;;;;;20896688;28;20312;-73
2021/07/20 00:12:02;;;;;;;1.65;1.48;;;24.70;99.90;;;;;;20896084;28;20717;-74
2021/07/20 00:22:07;;;;;;;1.25;1.15;;;24.50;99.90;;;;;;20894729;28;20569;-77
2021/07/20 00:32:11;;;;;;;1.23;0.95;;;24.50;99.90;;;;;;20899137;28;20227;-76
2021/07/20 00:42:15;;;;;;;2.07;1.40;;;24.50;99.90;;;;;;20911853;28;20647;-75
2021/07/20 00:52:19;;;;;;;3.22;1.00;;;24.40;99.90;;;;;;20912462;28;20909;-74
2021/07/20 01:02:24;;;;;;;1.70;1.20;;;24.40;99.90;;;;;;20911929;28;20247;-76
2021/07/20 01:12:30;;;;;;;0.98;0.73;;;24.50;99.90;;;;;;20910255;28;20327;-74
2021/07/20 01:22:37;;;;;;;8.48;1.35;;;25.00;99.90;;;;;;20864106;28;20181;-76
2021/07/20 01:32:43;;;;;;;1.70;1.48;;;25.30;99.90;;;;;;20861119;28;20268;-74
2021/07/20 01:42:48;;;;;;;1.00;0.73;;;25.50;99.90;;;;;;20907565;28;20618;-77
2021/07/20 01:52:55;;;;;;;1.10;0.95;;;25.50;99.90;;;;;;20906078;28;20229;-75
2021/07/20 02:03:19;;;;;;;4.70;1.38;;;25.40;99.90;;;;;;20906882;28;20229;-75
2021/07/20 02:13:26;;;;;;;1.95;0.90;;;25.10;99.90;;;;;;20905950;28;20260;-76
2021/07/20 02:23:32;;;;;;;3.42;1.67;;;24.80;99.90;;;;;;20906568;28;20221;-76
2021/07/20 02:33:38;;;;;;;0.75;0.68;;;24.70;99.90;;;;;;20904045;28;20312;-76
2021/07/20 02:43:44;;;;;;;0.93;0.70;;;25.00;99.90;;;;;;20902493;28;20213;-76
2021/07/20 02:53:54;;;;;;;0.90;0.73;;;24.90;99.90;;;;;;20901553;28;20282;-75
2021/07/20 03:03:58;;;;;;;2.53;1.40;;;24.80;99.90;;;;;;20901106;28;20221;-73
2021/07/20 03:14:08;;;;;;;1.70;0.80;;;24.30;99.90;;;;;;20900765;28;20781;-76
2021/07/20 03:24:14;;;;;;;0.82;0.82;;;24.70;99.90;;;;;;20899897;28;20235;-76
2021/07/20 03:34:20;;;;;;;0.98;0.68;;;24.80;99.90;;;;;;20900433;28;20213;-76
2021/07/20 03:44:26;;;;;;;2.17;0.93;;;24.50;99.90;;;;;;20900343;28;20197;-75
2021/07/20 03:54:33;;;;;;;1.10;0.90;;;24.10;99.90;;;;;;20903642;28;20217;-74
2021/07/20 04:04:40;;;;;;;0.57;0.57;;;24.20;99.90;;;;;;20916142;28;20225;-74
2021/07/20 04:14:45;;;;;;;1.13;1.00;;;24.20;99.90;;;;;;20914193;28;20750;-75
2021/07/20 04:24:49;;;;;;;1.65;0.70;;;23.80;99.90;;;;;;20917939;28;20670;-74
2021/07/20 04:34:56;;;;;;;1.10;0.70;;;23.60;99.90;;;;;;20913580;28;20300;-75
2021/07/20 04:45:00;;;;;;;1.20;1.10;;;23.70;99.90;;;;;;20913695;28;20186;-73
2021/07/20 04:55:07;;;;;;;1.38;1.00;;;24.00;99.90;;;;;;20911375;28;20705;-74
2021/07/20 05:05:15;;;;;;;0.93;0.77;;;24.00;99.90;;;;;;20912194;28;20253;-73
2021/07/20 05:15:21;;;;;;;0.77;0.57;;;23.70;99.90;;;;;;20911231;28;20221;-73
2021/07/20 05:25:25;;;;;;;1.92;1.42;;;23.80;99.90;;;;;;20904185;28;20212;-76
2021/07/20 05:35:30;;;;;;;5.95;2.00;;;23.90;99.90;;;;;;20941588;28;20635;-73
2021/07/20 05:45:36;;;;;;;1.15;0.65;;;24.10;99.90;;;;;;20855630;28;20668;-75
2021/07/20 05:55:41;;;;;;;31.00;4.50;;;24.50;99.90;;;;;;20876865;28;20730;-74
2021/07/20 06:05:46;;;;;;;1.55;0.88;;;25.30;99.90;;;;;;20907783;28;20305;-70
2021/07/20 06:15:53;;;;;;;1.08;0.95;;;25.60;99.90;;;;;;20906638;28;20225;-70
2021/07/20 06:25:57;;;;;;;2.45;1.75;;;26.00;99.90;;;;;;20903694;28;20208;-71
2021/07/20 06:36:03;;;;;;;3.33;1.17;;;26.50;99.90;;;;;;20902762;28;20673;-68
2021/07/20 06:46:08;;;;;;;2.92;1.73;;;26.90;99.90;;;;;;20899885;28;20284;-71
2021/07/20 06:56:21;;;;;;;2.33;1.48;;;27.30;99.90;;;;;;20895436;28;20235;-72
2021/07/20 07:06:28;;;;;;;1.48;1.38;;;27.60;99.90;;;;;;20899376;28;20235;-71
2021/07/20 07:16:34;;;;;;;1.83;1.30;;;28.60;99.90;;;;;;20856252;28;20686;-73
2021/07/20 07:26:38;;;;;;;2.17;1.98;;;28.80;99.90;;;;;;20864045;28;20190;-74
2021/07/20 07:36:47;;;;;;;36.72;2.67;;;27.80;99.90;;;;;;20847960;28;20213;-74
2021/07/20 07:46:54;;;;;;;2.45;1.65;;;27.20;99.90;;;;;;20824976;28;20229;-72
2021/07/20 07:56:59;;;;;;;3.55;2.13;;;27.10;99.90;;;;;;20866174;28;20256;-70
2021/07/20 08:07:06;;;;;;;5.35;2.65;;;27.10;99.90;;;;;;20897625;28;20278;-72
2021/07/20 08:17:13;;;;;;;8.82;1.90;;;26.90;99.90;;;;;;20871118;28;20245;-71
2021/07/20 08:27:24;;;;;;;12.70;1.85;;;26.80;99.90;;;;;;20892885;28;20194;-73
2021/07/20 08:37:33;;;;;;;3.40;2.47;;;27.00;99.90;;;;;;20892882;28;20433;-72
2021/07/20 08:47:58;;;;;;;3.78;1.63;;;27.20;99.90;;;;;;20896801;28;20225;-71
2021/07/20 08:58:05;;;;;;;1.25;1.00;;;27.40;99.90;;;;;;20902321;28;20694;-71
2021/07/20 09:08:16;;;;;;;1.48;0.85;;;27.30;99.90;;;;;;20903759;28;20309;-73
2021/07/20 09:18:29;;;;;;;0.88;0.88;;;27.20;99.90;;;;;;20824865;28;20642;-71
2021/07/20 09:28:39;;;;;;;17.48;1.95;;;27.20;99.90;;;;;;20825920;28;20665;-72
2021/07/20 09:39:06;;;;;;;1.83;1.67;;;27.20;99.90;;;;;;20898323;28;20780;-71
2021/07/20 09:49:19;;;;;;;2.15;1.20;;;27.60;99.90;;;;;;20906098;28;20208;-75
2021/07/20 09:59:38;;;;;;;1.40;1.30;;;27.60;99.90;;;;;;20906684;28;20605;-73
2021/07/20 10:09:48;;;;;;;1.17;0.80;;;27.70;99.90;;;;;;20904876;28;20201;-74
2021/07/20 10:19:57;;;;;;;2.42;1.30;;;27.90;99.90;;;;;;20904441;28;20288;-75
2021/07/20 10:30:06;;;;;;;2.17;0.85;;;28.10;99.90;;;;;;20902468;28;20224;-74
2021/07/20 10:40:15;;;;;;;1.65;1.33;;;28.20;99.90;;;;;;20901570;28;20561;-75
2021/07/20 10:50:24;;;;;;;1.85;0.63;;;28.40;99.90;;;;;;20911057;28;20577;-73
2021/07/20 11:00:48;;;;;;;4.78;0.85;;;28.60;99.90;;;;;;20904431;28;20291;-69
2021/07/20 11:10:56;;;;;;;2.28;1.10;;;28.80;99.90;;;;;;20897405;28;21029;-72
2021/07/20 11:21:02;;;;;;;1.10;0.93;;;28.60;99.90;;;;;;20894674;28;20251;-69
2021/07/20 11:31:11;;;;;;;0.90;0.73;;;29.30;99.90;;;;;;20895335;28;20260;-68
2021/07/20 11:41:31;;;;;;;5.15;1.17;;;29.70;99.90;;;;;;20894331;28;20247;-68
2021/07/20 11:51:41;;;;;;;2.00;1.70;;;30.00;99.90;;;;;;20895377;28;20239;-69
2021/07/20 12:02:30;;;;;;;1.25;0.95;;;30.00;99.90;;;;;;20893197;28;20236;-69
2021/07/20 12:12:48;;;;;;;1.00;0.63;;;30.10;99.90;;;;;;20893592;28;20255;-69
2021/07/20 12:22:53;;;;;;;8.93;1.50;;;30.60;99.90;;;;;;20892017;28;20228;-68
2021/07/20 12:32:59;;;;;;;0.93;0.90;;;31.00;99.90;;;;;;20903431;28;20229;-70
2021/07/20 12:43:11;;;;;;;2.78;1.40;;;31.00;99.90;;;;;;20910784;28;20687;-70
2021/07/20 12:53:16;;;;;;;1.50;1.40;;;31.80;99.90;;;;;;20912004;28;20363;-72
2021/07/20 13:03:19;;;;;;;2.13;0.77;;;32.80;99.90;;;;;;20906210;28;20758;-71
2021/07/20 13:13:29;;;;;;;1.55;0.70;;;32.40;99.90;;;;;;20909733;28;20705;-69
2021/07/20 13:23:41;;;;;;;1.67;1.38;;;33.80;99.90;;;;;;20918221;28;20661;-72
2021/07/20 13:33:46;;;;;;;1.85;1.17;;;34.50;99.90;;;;;;20905978;28;20311;-70
2021/07/20 13:43:52;;;;;;;1.83;1.27;;;33.60;99.90;;;;;;20903274;28;20217;-71
2021/07/20 13:54:03;;;;;;;4.72;1.50;;;35.20;99.90;;;;;;20903005;28;20245;-70
2021/07/20 14:04:08;;;;;;;9.13;1.25;;;34.50;99.90;;;;;;20901980;28;20324;-73
2021/07/20 14:14:14;;;;;;;1.13;0.77;;;35.20;99.90;;;;;;20901971;28;20318;-71
2021/07/20 14:24:21;;;;;;;1.88;1.38;;;34.60;99.90;;;;;;20906984;28;20190;-72
2021/07/20 14:34:42;;;;;;;1.85;1.15;;;34.40;99.90;;;;;;20901964;28;20252;-72
2021/07/20 14:45:07;;;;;;;5.32;1.60;;;34.30;99.90;;;;;;20894990;28;20224;-72
2021/07/20 14:55:15;;;;;;;1.88;1.33;;;34.00;99.90;;;;;;20898448;28;20274;-72
2021/07/20 15:05:20;;;;;;;2.75;1.58;;;35.30;99.90;;;;;;20900647;28;20218;-71
2021/07/20 15:15:30;;;;;;;2.40;1.60;;;35.30;99.90;;;;;;20899817;28;20228;-72
2021/07/20 15:25:34;;;;;;;5.07;2.58;;;35.40;99.90;;;;;;20898496;28;20261;-73
2021/07/20 15:35:41;;;;;;;1.83;1.23;;;34.80;99.90;;;;;;20899660;28;20224;-71
2021/07/20 15:45:44;;;;;;;1.65;1.33;;;35.40;99.90;;;;;;20898974;28;20189;-70
2021/07/20 15:55:50;;;;;;;3.92;2.13;;;34.20;99.90;;;;;;20897773;28;20228;-73
2021/07/20 16:05:55;;;;;;;0.88;0.88;;;33.90;99.90;;;;;;20904111;28;20227;-73
2021/07/20 16:16:00;;;;;;;2.67;1.52;;;34.20;99.90;;;;;;20913305;28;20225;-71
2021/07/20 16:26:10;;;;;;;3.65;1.83;;;33.40;99.90;;;;;;20912626;28;20605;-72
2021/07/20 16:36:15;;;;;;;3.60;1.80;;;34.10;99.90;;;;;;20911348;28;20221;-73
2021/07/20 16:46:22;;;;;;;1.42;0.93;;;33.20;99.90;;;;;;20911477;28;20276;-71
2021/07/20 16:56:32;;;;;;;2.65;1.40;;;32.40;99.90;;;;;;20892568;28;20241;-72
2021/07/20 17:06:37;;;;;;;1.73;1.45;;;31.70;99.90;;;;;;20909532;28;20221;-71
2021/07/20 17:16:46;;;;;;;1.48;1.20;;;31.30;99.90;;;;;;20915244;28;20220;-73
2021/07/20 17:26:52;;;;;;;4.35;1.40;;;30.80;99.90;;;;;;20878892;28;20220;-73
2021/07/20 17:36:57;;;;;;;2.22;1.30;;;30.10;99.90;;;;;;20884459;28;20213;-74
2021/07/20 17:47:01;;;;;;;2.15;1.75;;;29.00;99.90;;;;;;20906951;28;20693;-75
2021/07/20 17:57:10;;;;;;;2.25;1.48;;;28.20;99.90;;;;;;20904717;28;20217;-70
2021/07/20 18:07:14;;;;;;;2.80;2.22;;;28.40;99.90;;;;;;20877780;28;20237;-71
2021/07/20 18:17:19;;;;;;;12.13;1.60;;;29.20;99.90;;;;;;20910412;28;20225;-74
2021/07/20 18:27:23;;;;;;;1.85;1.20;;;30.20;99.90;;;;;;20903701;28;20685;-74
2021/07/20 18:37:29;;;;;;;1.90;1.05;;;30.40;99.90;;;;;;20878733;28;20257;-73
2021/07/20 18:47:32;;;;;;;1.52;1.05;;;29.20;99.90;;;;;;20820805;28;20198;-74
2021/07/20 18:57:38;;;;;;;2.10;1.90;;;28.90;99.90;;;;;;20897552;28;20240;-76
2021/07/20 19:07:42;;;;;;;1.05;0.90;;;27.30;99.90;;;;;;20891732;28;20225;-75
2021/07/20 19:17:46;;;;;;;1.40;1.00;;;27.00;99.90;;;;;;20823810;28;20258;-76
2021/07/20 19:27:50;;;;;;;2.15;1.83;;;26.80;99.90;;;;;;20815321;28;20525;-76
2021/07/20 19:37:55;;;;;;;1.08;0.80;;;26.50;99.90;;;;;;20883394;28;20600;-74
2021/07/20 19:48:00;;;;;;;1.63;1.25;;;26.30;99.90;;;;;;20899500;28;20300;-73
2021/07/20 19:58:05;;;;;;;1.40;1.23;;;26.40;99.90;;;;;;20899189;28;20221;-73
2021/07/20 20:08:09;;;;;;;1.30;0.93;;;26.30;99.90;;;;;;20897127;28;20217;-73
2021/07/20 20:18:17;;;;;;;0.88;0.80;;;26.40;99.90;;;;;;20897863;28;20225;-73
2021/07/20 20:28:23;;;;;;;1.27;0.90;;;26.70;99.90;;;;;;20843174;28;20301;-71
2021/07/20 20:38:33;;;;;;;3.13;1.92;;;26.70;99.90;;;;;;20889855;28;20231;-72
2021/07/20 20:48:46;;;;;;;3.78;2.22;;;26.60;99.90;;;;;;20903696;28;20288;-74
2021/07/20 20:58:54;;;;;;;1.20;0.85;;;26.40;99.90;;;;;;20912428;28;20233;-74
2021/07/20 21:09:01;;;;;;;3.80;1.58;;;26.10;99.90;;;;;;20910797;28;20304;-73
2021/07/20 21:19:07;;;;;;;2.65;1.23;;;25.80;99.90;;;;;;20909374;28;20237;-73
2021/07/20 21:29:12;;;;;;;1.80;1.30;;;25.60;99.90;;;;;;20909377;28;20197;-74
2021/07/20 21:39:17;;;;;;;1.33;1.02;;;25.30;99.90;;;;;;20911760;28;20221;-73
2021/07/20 21:49:21;;;;;;;1.60;1.50;;;25.00;99.90;;;;;;20909069;28;20200;-73
2021/07/20 21:59:26;;;;;;;0.75;0.75;;;25.00;99.90;;;;;;20907245;28;20248;-71
2021/07/20 22:09:30;;;;;;;1.83;1.55;;;25.00;99.90;;;;;;20917950;28;20244;-71
2021/07/20 22:19:35;;;;;;;0.80;0.80;;;24.70;99.90;;;;;;20905288;28;20531;-72
2021/07/20 22:29:39;;;;;;;1.05;0.75;;;24.60;99.90;;;;;;20906430;28;20276;-72
2021/07/20 22:39:44;;;;;;;2.00;1.80;;;24.30;99.90;;;;;;20905554;28;20316;-69
2021/07/20 22:49:47;;;;;;;16.13;0.68;;;24.60;99.90;;;;;;20902238;28;20659;-72
2021/07/20 22:59:52;;;;;;;2.37;1.53;;;24.50;99.90;;;;;;20903075;28;20260;-72
2021/07/20 23:09:56;;;;;;;2.22;1.63;;;24.20;99.90;;;;;;20902789;28;20200;-72
2021/07/20 23:20:01;;;;;;;2.80;1.38;;;24.30;99.90;;;;;;20901786;28;20624;-72
2021/07/20 23:30:09;;;;;;;3.20;1.75;;;24.40;99.90;;;;;;20902444;28;20593;-72
2021/07/20 23:40:18;;;;;;;1.83;1.25;;;24.60;99.90;;;;;;20900801;28;20228;-72
2021/07/20 23:50:25;;;;;;;1.33;1.17;;;25.20;99.90;;;;;;20899501;28;20247;-72
